YFA weather

La Rivera Airport
Caborca, Sonora, Mexico

Public forecast

Using degrees Celsius for public forecast. Weather courtesy of forecast.io.

METAR (pilot weather report)

Closest report is (Old) Puerto PeƱasco Airport, 43.6 nm (80.7 km) NW. Retrieved UTC (0 seconds ago):

TAF (pilot weather forecast)

Closest forecast is Nogales International Airport, 111.9 nm (207.2 km) ENE. Retrieved 2019/05/25 18:22 UTC (3 hours ago):

TAF KOLS 251720Z 2518/2618 20010G18KT P6SM SKC FM252000 20018G28KT P6SM SKC FM260300 19012KT P6SM SKC FM260700 14006KT P6SM SKC